sensor_id;sensor_type;location;lat;lon;timestamp;temperature;humidity
39371;DHT22;25099;51.946;4.838;2023-04-25T00:01:59;9.00;99.90
39371;DHT22;25099;51.946;4.838;2023-04-25T00:04:25;9.00;99.90
39371;DHT22;25099;51.946;4.838;2023-04-25T00:06:53;9.00;99.90
39371;DHT22;25099;51.946;4.838;2023-04-25T00:09:19;9.10;99.90
39371;DHT22;25099;51.946;4.838;2023-04-25T00:11:44;9.00;99.90
39371;DHT22;25099;51.946;4.838;2023-04-25T00:14:10;9.10;99.90
39371;DHT22;25099;51.946;4.838;2023-04-25T00:16:36;9.10;99.90
39371;DHT22;25099;51.946;4.838;2023-04-25T00:19:02;9.10;99.90
39371;DHT22;25099;51.946;4.838;2023-04-25T00:21:28;9.10;99.90
39371;DHT22;25099;51.946;4.838;2023-04-25T00:23:54;9.10;99.90
39371;DHT22;25099;51.946;4.838;2023-04-25T00:26:20;9.10;99.90
39371;DHT22;25099;51.946;4.838;2023-04-25T00:28:47;9.10;99.90
39371;DHT22;25099;51.946;4.838;2023-04-25T00:31:12;9.10;99.90
39371;DHT22;25099;51.946;4.838;2023-04-25T00:33:38;9.10;99.90
39371;DHT22;25099;51.946;4.838;2023-04-25T00:36:04;9.10;99.90
39371;DHT22;25099;51.946;4.838;2023-04-25T00:38:29;9.10;99.90
39371;DHT22;25099;51.946;4.838;2023-04-25T00:40:55;9.10;99.90
39371;DHT22;25099;51.946;4.838;2023-04-25T00:43:21;9.10;99.90
39371;DHT22;25099;51.946;4.838;2023-04-25T00:45:47;9.10;99.90
39371;DHT22;25099;51.946;4.838;2023-04-25T00:48:14;9.10;99.90
39371;DHT22;25099;51.946;4.838;2023-04-25T00:50:39;9.10;99.90
39371;DHT22;25099;51.946;4.838;2023-04-25T00:53:05;9.10;99.90
39371;DHT22;25099;51.946;4.838;2023-04-25T00:55:31;9.00;99.90
39371;DHT22;25099;51.946;4.838;2023-04-25T00:57:58;9.00;99.90
39371;DHT22;25099;51.946;4.838;2023-04-25T01:00:23;9.10;99.90
39371;DHT22;25099;51.946;4.838;2023-04-25T01:02:49;9.10;99.90
39371;DHT22;25099;51.946;4.838;2023-04-25T01:05:15;9.00;99.90
39371;DHT22;25099;51.946;4.838;2023-04-25T01:07:41;9.00;99.90
39371;DHT22;25099;51.946;4.838;2023-04-25T01:10:07;9.00;99.90
39371;DHT22;25099;51.946;4.838;2023-04-25T01:12:33;9.00;99.90
39371;DHT22;25099;51.946;4.838;2023-04-25T01:14:58;9.00;99.90
39371;DHT22;25099;51.946;4.838;2023-04-25T01:17:24;8.90;99.90
39371;DHT22;25099;51.946;4.838;2023-04-25T01:19:50;8.90;99.90
39371;DHT22;25099;51.946;4.838;2023-04-25T01:22:17;9.00;99.90
39371;DHT22;25099;51.946;4.838;2023-04-25T01:24:43;9.00;99.90
39371;DHT22;25099;51.946;4.838;2023-04-25T01:27:09;9.00;99.90
39371;DHT22;25099;51.946;4.838;2023-04-25T01:29:36;9.00;99.90
39371;DHT22;25099;51.946;4.838;2023-04-25T01:32:03;9.00;99.90
39371;DHT22;25099;51.946;4.838;2023-04-25T01:34:29;9.00;99.90
39371;DHT22;25099;51.946;4.838;2023-04-25T01:36:55;8.90;99.90
39371;DHT22;25099;51.946;4.838;2023-04-25T01:39:20;9.00;99.90
39371;DHT22;25099;51.946;4.838;2023-04-25T01:41:47;9.00;99.90
39371;DHT22;25099;51.946;4.838;2023-04-25T01:44:13;9.00;99.90
39371;DHT22;25099;51.946;4.838;2023-04-25T01:46:39;9.00;99.90
39371;DHT22;25099;51.946;4.838;2023-04-25T01:49:05;9.00;99.90
39371;DHT22;25099;51.946;4.838;2023-04-25T01:51:31;9.10;99.90
39371;DHT22;25099;51.946;4.838;2023-04-25T01:53:57;9.00;99.90
39371;DHT22;25099;51.946;4.838;2023-04-25T01:56:23;9.00;99.90
39371;DHT22;25099;51.946;4.838;2023-04-25T01:58:49;8.90;99.90
39371;DHT22;25099;51.946;4.838;2023-04-25T02:01:14;8.80;99.90
39371;DHT22;25099;51.946;4.838;2023-04-25T02:03:40;8.80;99.90
39371;DHT22;25099;51.946;4.838;2023-04-25T02:06:06;8.90;99.90
39371;DHT22;25099;51.946;4.838;2023-04-25T02:08:31;8.80;99.90
39371;DHT22;25099;51.946;4.838;2023-04-25T02:10:57;8.80;99.90
39371;DHT22;25099;51.946;4.838;2023-04-25T02:13:23;8.80;99.90
39371;DHT22;25099;51.946;4.838;2023-04-25T02:15:48;8.80;99.90
39371;DHT22;25099;51.946;4.838;2023-04-25T02:18:14;8.70;99.90
39371;DHT22;25099;51.946;4.838;2023-04-25T02:20:42;8.80;99.90
39371;DHT22;25099;51.946;4.838;2023-04-25T02:23:07;8.80;99.90
39371;DHT22;25099;51.946;4.838;2023-04-25T02:25:33;8.80;99.90
39371;DHT22;25099;51.946;4.838;2023-04-25T02:27:58;8.90;99.90
39371;DHT22;25099;51.946;4.838;2023-04-25T02:30:24;8.70;99.90
39371;DHT22;25099;51.946;4.838;2023-04-25T02:32:50;8.70;99.90
39371;DHT22;25099;51.946;4.838;2023-04-25T02:35:15;8.70;99.90
39371;DHT22;25099;51.946;4.838;2023-04-25T02:37:42;8.70;99.90
39371;DHT22;25099;51.946;4.838;2023-04-25T02:40:08;8.70;99.90
39371;DHT22;25099;51.946;4.838;2023-04-25T02:42:33;8.70;99.90
39371;DHT22;25099;51.946;4.838;2023-04-25T02:44:59;8.70;99.90
39371;DHT22;25099;51.946;4.838;2023-04-25T02:47:25;8.60;99.90
39371;DHT22;25099;51.946;4.838;2023-04-25T02:49:50;8.60;99.90
39371;DHT22;25099;51.946;4.838;2023-04-25T02:52:16;8.60;99.90
39371;DHT22;25099;51.946;4.838;2023-04-25T02:54:41;8.70;99.90
39371;DHT22;25099;51.946;4.838;2023-04-25T02:57:07;8.70;99.90
39371;DHT22;25099;51.946;4.838;2023-04-25T02:59:33;8.70;99.90
39371;DHT22;25099;51.946;4.838;2023-04-25T03:01:58;8.70;99.90
39371;DHT22;25099;51.946;4.838;2023-04-25T03:04:24;8.70;99.90
39371;DHT22;25099;51.946;4.838;2023-04-25T03:06:50;8.70;99.90
39371;DHT22;25099;51.946;4.838;2023-04-25T03:09:16;8.70;99.90
39371;DHT22;25099;51.946;4.838;2023-04-25T03:11:43;8.70;99.90
39371;DHT22;25099;51.946;4.838;2023-04-25T03:14:09;8.70;99.90
39371;DHT22;25099;51.946;4.838;2023-04-25T03:16:35;8.70;99.90
39371;DHT22;25099;51.946;4.838;2023-04-25T03:19:01;8.70;99.90
39371;DHT22;25099;51.946;4.838;2023-04-25T03:21:27;8.70;99.90
39371;DHT22;25099;51.946;4.838;2023-04-25T03:23:52;8.70;99.90
39371;DHT22;25099;51.946;4.838;2023-04-25T03:26:18;8.70;99.90
39371;DHT22;25099;51.946;4.838;2023-04-25T03:28:43;8.70;99.90
39371;DHT22;25099;51.946;4.838;2023-04-25T03:31:09;8.60;99.90
39371;DHT22;25099;51.946;4.838;2023-04-25T03:33:35;8.60;99.90
39371;DHT22;25099;51.946;4.838;2023-04-25T03:36:00;8.70;99.90
39371;DHT22;25099;51.946;4.838;2023-04-25T03:38:26;8.70;99.90
39371;DHT22;25099;51.946;4.838;2023-04-25T03:40:51;8.70;99.90
39371;DHT22;25099;51.946;4.838;2023-04-25T03:43:17;8.70;99.90
39371;DHT22;25099;51.946;4.838;2023-04-25T03:45:43;8.50;99.90
39371;DHT22;25099;51.946;4.838;2023-04-25T03:48:08;8.40;99.90
39371;DHT22;25099;51.946;4.838;2023-04-25T03:50:34;8.30;99.90
39371;DHT22;25099;51.946;4.838;2023-04-25T03:53:00;8.30;99.90
39371;DHT22;25099;51.946;4.838;2023-04-25T03:55:25;8.10;99.90
39371;DHT22;25099;51.946;4.838;2023-04-25T03:57:51;8.30;99.90
39371;DHT22;25099;51.946;4.838;2023-04-25T04:00:16;8.30;99.90
39371;DHT22;25099;51.946;4.838;2023-04-25T04:02:42;8.30;99.90
39371;DHT22;25099;51.946;4.838;2023-04-25T04:05:08;8.50;99.90
39371;DHT22;25099;51.946;4.838;2023-04-25T04:07:33;8.50;99.90
39371;DHT22;25099;51.946;4.838;2023-04-25T04:10:01;8.60;99.90
39371;DHT22;25099;51.946;4.838;2023-04-25T04:12:27;8.60;99.90
39371;DHT22;25099;51.946;4.838;2023-04-25T04:14:53;8.60;99.90
39371;DHT22;25099;51.946;4.838;2023-04-25T04:17:18;8.60;99.90
39371;DHT22;25099;51.946;4.838;2023-04-25T04:19:44;8.70;99.90
39371;DHT22;25099;51.946;4.838;2023-04-25T04:22:09;8.70;99.90
39371;DHT22;25099;51.946;4.838;2023-04-25T04:24:35;8.70;99.90
39371;DHT22;25099;51.946;4.838;2023-04-25T04:27:01;8.80;99.90
39371;DHT22;25099;51.946;4.838;2023-04-25T04:29:26;8.80;99.90
39371;DHT22;25099;51.946;4.838;2023-04-25T04:31:52;8.70;99.90
39371;DHT22;25099;51.946;4.838;2023-04-25T04:34:18;8.70;99.90
39371;DHT22;25099;51.946;4.838;2023-04-25T04:36:44;8.60;99.90
39371;DHT22;25099;51.946;4.838;2023-04-25T04:39:13;8.50;99.90
39371;DHT22;25099;51.946;4.838;2023-04-25T04:41:39;8.50;99.90
39371;DHT22;25099;51.946;4.838;2023-04-25T04:44:05;8.40;99.90
39371;DHT22;25099;51.946;4.838;2023-04-25T04:46:32;8.40;99.90
39371;DHT22;25099;51.946;4.838;2023-04-25T04:49:04;8.20;99.90
39371;DHT22;25099;51.946;4.838;2023-04-25T04:51:30;8.10;99.90
39371;DHT22;25099;51.946;4.838;2023-04-25T04:53:56;8.00;99.90
39371;DHT22;25099;51.946;4.838;2023-04-25T04:56:24;8.00;99.90
39371;DHT22;25099;51.946;4.838;2023-04-25T04:58:50;8.00;99.90
39371;DHT22;25099;51.946;4.838;2023-04-25T05:01:16;7.90;99.90
39371;DHT22;25099;51.946;4.838;2023-04-25T05:03:42;7.90;99.90
39371;DHT22;25099;51.946;4.838;2023-04-25T05:06:07;7.90;99.90
39371;DHT22;25099;51.946;4.838;2023-04-25T05:08:34;7.80;99.90
39371;DHT22;25099;51.946;4.838;2023-04-25T05:10:59;7.70;99.90
39371;DHT22;25099;51.946;4.838;2023-04-25T05:13:25;7.70;99.90
39371;DHT22;25099;51.946;4.838;2023-04-25T05:15:50;7.70;99.90
39371;DHT22;25099;51.946;4.838;2023-04-25T05:18:16;7.70;99.90
39371;DHT22;25099;51.946;4.838;2023-04-25T05:20:41;7.70;99.90
39371;DHT22;25099;51.946;4.838;2023-04-25T05:23:07;7.80;99.90
39371;DHT22;25099;51.946;4.838;2023-04-25T05:25:33;7.80;99.90
39371;DHT22;25099;51.946;4.838;2023-04-25T05:27:58;7.90;99.90
39371;DHT22;25099;51.946;4.838;2023-04-25T05:30:24;7.90;99.90
39371;DHT22;25099;51.946;4.838;2023-04-25T05:32:50;8.00;99.90
39371;DHT22;25099;51.946;4.838;2023-04-25T05:35:16;8.10;99.90
39371;DHT22;25099;51.946;4.838;2023-04-25T05:37:49;8.30;99.90
39371;DHT22;25099;51.946;4.838;2023-04-25T05:40:14;8.80;99.90
39371;DHT22;25099;51.946;4.838;2023-04-25T05:42:40;8.30;99.90
39371;DHT22;25099;51.946;4.838;2023-04-25T05:45:06;8.30;99.90
39371;DHT22;25099;51.946;4.838;2023-04-25T05:47:34;8.40;99.90
39371;DHT22;25099;51.946;4.838;2023-04-25T05:50:00;8.40;99.90
39371;DHT22;25099;51.946;4.838;2023-04-25T05:52:25;8.40;99.90
39371;DHT22;25099;51.946;4.838;2023-04-25T05:54:51;8.40;99.90
39371;DHT22;25099;51.946;4.838;2023-04-25T05:57:26;8.50;99.90
39371;DHT22;25099;51.946;4.838;2023-04-25T05:59:53;8.50;99.90
39371;DHT22;25099;51.946;4.838;2023-04-25T06:02:22;8.60;99.90
39371;DHT22;25099;51.946;4.838;2023-04-25T06:04:51;8.50;99.90
39371;DHT22;25099;51.946;4.838;2023-04-25T06:07:17;8.50;99.90
39371;DHT22;25099;51.946;4.838;2023-04-25T06:09:43;8.40;99.90
39371;DHT22;25099;51.946;4.838;2023-04-25T06:12:09;8.40;99.90
39371;DHT22;25099;51.946;4.838;2023-04-25T06:14:35;8.30;99.90
39371;DHT22;25099;51.946;4.838;2023-04-25T06:17:01;8.20;99.90
39371;DHT22;25099;51.946;4.838;2023-04-25T06:19:32;8.10;99.90
39371;DHT22;25099;51.946;4.838;2023-04-25T06:21:58;8.10;99.90
39371;DHT22;25099;51.946;4.838;2023-04-25T06:24:23;8.20;99.90
39371;DHT22;25099;51.946;4.838;2023-04-25T06:26:49;8.10;99.90
39371;DHT22;25099;51.946;4.838;2023-04-25T06:29:15;8.20;99.90
39371;DHT22;25099;51.946;4.838;2023-04-25T06:31:40;8.20;99.90
39371;DHT22;25099;51.946;4.838;2023-04-25T06:34:06;8.30;99.90
39371;DHT22;25099;51.946;4.838;2023-04-25T06:36:32;8.40;99.90
39371;DHT22;25099;51.946;4.838;2023-04-25T06:38:57;8.40;99.90
39371;DHT22;25099;51.946;4.838;2023-04-25T06:41:23;8.40;99.90
39371;DHT22;25099;51.946;4.838;2023-04-25T06:43:49;8.30;99.90
39371;DHT22;25099;51.946;4.838;2023-04-25T06:46:14;8.40;99.90
39371;DHT22;25099;51.946;4.838;2023-04-25T06:48:40;8.40;99.90
39371;DHT22;25099;51.946;4.838;2023-04-25T06:51:05;8.30;99.90
39371;DHT22;25099;51.946;4.838;2023-04-25T06:53:31;8.30;99.90
39371;DHT22;25099;51.946;4.838;2023-04-25T06:55:56;8.30;99.90
39371;DHT22;25099;51.946;4.838;2023-04-25T06:58:22;8.30;99.90
39371;DHT22;25099;51.946;4.838;2023-04-25T07:00:48;8.40;99.90
39371;DHT22;25099;51.946;4.838;2023-04-25T07:03:13;8.40;99.90
39371;DHT22;25099;51.946;4.838;2023-04-25T07:05:39;8.40;99.90
39371;DHT22;25099;51.946;4.838;2023-04-25T07:08:04;8.40;99.90
39371;DHT22;25099;51.946;4.838;2023-04-25T07:10:30;8.50;99.90
39371;DHT22;25099;51.946;4.838;2023-04-25T07:12:56;8.50;99.90
39371;DHT22;25099;51.946;4.838;2023-04-25T07:15:21;8.60;99.90
39371;DHT22;25099;51.946;4.838;2023-04-25T07:17:47;8.60;99.90
39371;DHT22;25099;51.946;4.838;2023-04-25T07:20:12;8.60;99.90
39371;DHT22;25099;51.946;4.838;2023-04-25T07:22:38;8.60;99.90
39371;DHT22;25099;51.946;4.838;2023-04-25T07:25:04;8.60;99.90
39371;DHT22;25099;51.946;4.838;2023-04-25T07:27:30;8.60;99.90
39371;DHT22;25099;51.946;4.838;2023-04-25T07:29:56;8.70;99.90
39371;DHT22;25099;51.946;4.838;2023-04-25T07:32:22;8.70;99.90
39371;DHT22;25099;51.946;4.838;2023-04-25T07:34:48;8.80;99.90
39371;DHT22;25099;51.946;4.838;2023-04-25T07:37:14;8.80;99.90
39371;DHT22;25099;51.946;4.838;2023-04-25T07:39:40;8.80;99.90
39371;DHT22;25099;51.946;4.838;2023-04-25T07:42:06;8.80;99.90
39371;DHT22;25099;51.946;4.838;2023-04-25T07:44:34;8.80;99.90
39371;DHT22;25099;51.946;4.838;2023-04-25T07:47:05;8.90;99.90
39371;DHT22;25099;51.946;4.838;2023-04-25T07:49:36;8.90;99.90
39371;DHT22;25099;51.946;4.838;2023-04-25T07:52:03;8.80;99.90
39371;DHT22;25099;51.946;4.838;2023-04-25T07:54:28;8.80;99.90
39371;DHT22;25099;51.946;4.838;2023-04-25T07:56:54;8.70;99.90
39371;DHT22;25099;51.946;4.838;2023-04-25T07:59:20;8.80;99.90
39371;DHT22;25099;51.946;4.838;2023-04-25T08:01:45;9.20;99.90
39371;DHT22;25099;51.946;4.838;2023-04-25T08:04:11;8.70;99.90
39371;DHT22;25099;51.946;4.838;2023-04-25T08:06:37;8.70;99.90
39371;DHT22;25099;51.946;4.838;2023-04-25T08:09:02;8.70;99.90
39371;DHT22;25099;51.946;4.838;2023-04-25T08:11:29;8.70;99.90
39371;DHT22;25099;51.946;4.838;2023-04-25T08:13:54;8.70;99.90
39371;DHT22;25099;51.946;4.838;2023-04-25T08:16:20;8.60;99.90
39371;DHT22;25099;51.946;4.838;2023-04-25T08:18:45;8.60;99.90
39371;DHT22;25099;51.946;4.838;2023-04-25T08:21:11;9.30;99.90
39371;DHT22;25099;51.946;4.838;2023-04-25T08:23:38;8.60;99.90
39371;DHT22;25099;51.946;4.838;2023-04-25T08:26:03;8.60;99.90
39371;DHT22;25099;51.946;4.838;2023-04-25T08:28:30;9.10;99.90
39371;DHT22;25099;51.946;4.838;2023-04-25T08:30:56;8.70;99.90
39371;DHT22;25099;51.946;4.838;2023-04-25T08:33:22;8.70;99.90
39371;DHT22;25099;51.946;4.838;2023-04-25T08:35:47;8.90;99.90
39371;DHT22;25099;51.946;4.838;2023-04-25T08:38:13;9.00;99.90
39371;DHT22;25099;51.946;4.838;2023-04-25T08:40:39;9.00;99.90
39371;DHT22;25099;51.946;4.838;2023-04-25T08:43:06;9.00;99.90
39371;DHT22;25099;51.946;4.838;2023-04-25T08:45:39;9.10;99.90
39371;DHT22;25099;51.946;4.838;2023-04-25T08:48:10;9.10;99.90
39371;DHT22;25099;51.946;4.838;2023-04-25T08:50:38;9.20;99.90
39371;DHT22;25099;51.946;4.838;2023-04-25T08:53:08;9.20;99.90
39371;DHT22;25099;51.946;4.838;2023-04-25T08:55:37;9.30;99.90
39371;DHT22;25099;51.946;4.838;2023-04-25T08:58:03;9.30;99.90
39371;DHT22;25099;51.946;4.838;2023-04-25T09:00:30;9.20;99.90
39371;DHT22;25099;51.946;4.838;2023-04-25T09:02:57;9.20;99.90
39371;DHT22;25099;51.946;4.838;2023-04-25T09:05:24;9.20;99.90
39371;DHT22;25099;51.946;4.838;2023-04-25T09:07:49;9.10;99.90
39371;DHT22;25099;51.946;4.838;2023-04-25T09:10:15;9.10;99.90
39371;DHT22;25099;51.946;4.838;2023-04-25T09:12:40;9.20;99.90
39371;DHT22;25099;51.946;4.838;2023-04-25T09:15:11;9.10;99.90
39371;DHT22;25099;51.946;4.838;2023-04-25T09:17:37;9.20;99.90
39371;DHT22;25099;51.946;4.838;2023-04-25T09:22:32;9.20;99.90
39371;DHT22;25099;51.946;4.838;2023-04-25T09:25:03;9.20;99.90
39371;DHT22;25099;51.946;4.838;2023-04-25T09:27:29;9.30;99.90
39371;DHT22;25099;51.946;4.838;2023-04-25T09:29:58;9.30;99.90
39371;DHT22;25099;51.946;4.838;2023-04-25T09:32:26;9.20;99.90
39371;DHT22;25099;51.946;4.838;2023-04-25T09:34:55;9.20;99.90
39371;DHT22;25099;51.946;4.838;2023-04-25T09:37:28;9.10;99.90
39371;DHT22;25099;51.946;4.838;2023-04-25T09:39:56;9.00;99.90
39371;DHT22;25099;51.946;4.838;2023-04-25T09:42:23;8.90;99.90
39371;DHT22;25099;51.946;4.838;2023-04-25T09:44:51;8.80;99.90
39371;DHT22;25099;51.946;4.838;2023-04-25T09:47:17;8.80;99.90
39371;DHT22;25099;51.946;4.838;2023-04-25T09:49:44;8.70;99.90
39371;DHT22;25099;51.946;4.838;2023-04-25T09:52:14;8.60;99.90
39371;DHT22;25099;51.946;4.838;2023-04-25T09:54:40;8.60;99.90
39371;DHT22;25099;51.946;4.838;2023-04-25T09:57:14;8.30;99.90
39371;DHT22;25099;51.946;4.838;2023-04-25T09:59:44;8.30;99.90
39371;DHT22;25099;51.946;4.838;2023-04-25T10:02:11;8.20;99.90
39371;DHT22;25099;51.946;4.838;2023-04-25T10:04:38;8.30;99.90
39371;DHT22;25099;51.946;4.838;2023-04-25T10:07:06;8.40;99.90
39371;DHT22;25099;51.946;4.838;2023-04-25T10:09:33;8.40;99.90
39371;DHT22;25099;51.946;4.838;2023-04-25T10:11:59;8.50;99.90
39371;DHT22;25099;51.946;4.838;2023-04-25T10:14:26;8.50;99.90
39371;DHT22;25099;51.946;4.838;2023-04-25T10:16:53;8.40;99.90
39371;DHT22;25099;51.946;4.838;2023-04-25T10:19:22;8.50;99.90
39371;DHT22;25099;51.946;4.838;2023-04-25T10:21:52;8.60;99.90
39371;DHT22;25099;51.946;4.838;2023-04-25T10:24:18;8.70;99.90
39371;DHT22;25099;51.946;4.838;2023-04-25T10:26:44;8.80;99.90
39371;DHT22;25099;51.946;4.838;2023-04-25T10:29:10;8.80;99.90
39371;DHT22;25099;51.946;4.838;2023-04-25T10:31:45;8.80;99.90
39371;DHT22;25099;51.946;4.838;2023-04-25T10:34:11;8.80;99.90
39371;DHT22;25099;51.946;4.838;2023-04-25T10:36:36;8.80;99.90
39371;DHT22;25099;51.946;4.838;2023-04-25T10:39:05;8.90;99.90
39371;DHT22;25099;51.946;4.838;2023-04-25T10:41:52;9.00;99.90
39371;DHT22;25099;51.946;4.838;2023-04-25T10:44:17;9.10;99.90
39371;DHT22;25099;51.946;4.838;2023-04-25T10:46:46;9.10;99.90
39371;DHT22;25099;51.946;4.838;2023-04-25T10:49:37;9.20;99.90
39371;DHT22;25099;51.946;4.838;2023-04-25T10:52:19;9.20;99.90
39371;DHT22;25099;51.946;4.838;2023-04-25T10:54:56;9.30;99.90
39371;DHT22;25099;51.946;4.838;2023-04-25T10:57:44;9.40;99.90
39371;DHT22;25099;51.946;4.838;2023-04-25T11:00:15;9.40;99.90
39371;DHT22;25099;51.946;4.838;2023-04-25T11:02:52;9.40;99.90
39371;DHT22;25099;51.946;4.838;2023-04-25T11:05:33;9.50;99.90
39371;DHT22;25099;51.946;4.838;2023-04-25T11:08:00;9.50;99.90
39371;DHT22;25099;51.946;4.838;2023-04-25T11:10:30;9.50;99.90
39371;DHT22;25099;51.946;4.838;2023-04-25T11:12:56;9.40;99.90
39371;DHT22;25099;51.946;4.838;2023-04-25T11:15:22;9.50;99.90
39371;DHT22;25099;51.946;4.838;2023-04-25T11:17:48;9.20;99.90
39371;DHT22;25099;51.946;4.838;2023-04-25T11:20:14;9.20;99.90
39371;DHT22;25099;51.946;4.838;2023-04-25T11:22:41;9.20;99.90
39371;DHT22;25099;51.946;4.838;2023-04-25T11:25:11;9.20;99.90
39371;DHT22;25099;51.946;4.838;2023-04-25T11:27:53;9.10;99.90
39371;DHT22;25099;51.946;4.838;2023-04-25T11:30:20;9.10;99.90
39371;DHT22;25099;51.946;4.838;2023-04-25T11:32:46;9.10;99.90
39371;DHT22;25099;51.946;4.838;2023-04-25T11:35:12;9.10;99.90
39371;DHT22;25099;51.946;4.838;2023-04-25T11:37:39;9.10;99.90
39371;DHT22;25099;51.946;4.838;2023-04-25T11:40:06;9.20;99.90
39371;DHT22;25099;51.946;4.838;2023-04-25T11:42:32;9.40;99.90
39371;DHT22;25099;51.946;4.838;2023-04-25T11:45:01;9.40;99.90
39371;DHT22;25099;51.946;4.838;2023-04-25T11:47:30;9.90;99.90
39371;DHT22;25099;51.946;4.838;2023-04-25T11:49:58;9.40;99.90
39371;DHT22;25099;51.946;4.838;2023-04-25T11:52:24;9.50;99.90
39371;DHT22;25099;51.946;4.838;2023-04-25T11:54:49;9.50;99.90
39371;DHT22;25099;51.946;4.838;2023-04-25T11:57:19;9.60;99.90
39371;DHT22;25099;51.946;4.838;2023-04-25T11:59:44;9.60;99.90
39371;DHT22;25099;51.946;4.838;2023-04-25T12:02:24;9.60;99.90
39371;DHT22;25099;51.946;4.838;2023-04-25T12:04:50;9.50;99.90
39371;DHT22;25099;51.946;4.838;2023-04-25T12:07:16;9.50;99.90
39371;DHT22;25099;51.946;4.838;2023-04-25T12:09:41;9.50;99.90
39371;DHT22;25099;51.946;4.838;2023-04-25T12:12:09;9.60;99.90
39371;DHT22;25099;51.946;4.838;2023-04-25T12:14:35;10.30;99.90
39371;DHT22;25099;51.946;4.838;2023-04-25T12:17:03;10.00;99.90
39371;DHT22;25099;51.946;4.838;2023-04-25T12:19:34;9.70;99.90
39371;DHT22;25099;51.946;4.838;2023-04-25T12:22:00;9.80;99.90
39371;DHT22;25099;51.946;4.838;2023-04-25T12:24:27;9.80;99.90
39371;DHT22;25099;51.946;4.838;2023-04-25T12:29:26;9.70;99.90
39371;DHT22;25099;51.946;4.838;2023-04-25T12:31:54;9.80;99.90
39371;DHT22;25099;51.946;4.838;2023-04-25T12:34:20;9.80;99.90
39371;DHT22;25099;51.946;4.838;2023-04-25T12:36:46;9.90;99.90
39371;DHT22;25099;51.946;4.838;2023-04-25T12:39:22;9.90;99.90
39371;DHT22;25099;51.946;4.838;2023-04-25T12:41:48;10.00;99.90
39371;DHT22;25099;51.946;4.838;2023-04-25T12:44:14;10.00;99.90
39371;DHT22;25099;51.946;4.838;2023-04-25T12:46:40;10.10;99.90
39371;DHT22;25099;51.946;4.838;2023-04-25T12:49:07;10.10;99.90
39371;DHT22;25099;51.946;4.838;2023-04-25T12:51:36;10.10;99.90
39371;DHT22;25099;51.946;4.838;2023-04-25T12:54:04;10.20;99.90
39371;DHT22;25099;51.946;4.838;2023-04-25T12:56:30;10.20;99.90
39371;DHT22;25099;51.946;4.838;2023-04-25T12:58:55;10.20;99.90
39371;DHT22;25099;51.946;4.838;2023-04-25T13:01:22;10.20;99.90
39371;DHT22;25099;51.946;4.838;2023-04-25T13:03:48;10.20;99.90
39371;DHT22;25099;51.946;4.838;2023-04-25T13:06:16;10.20;99.90
39371;DHT22;25099;51.946;4.838;2023-04-25T13:08:42;10.20;99.90
39371;DHT22;25099;51.946;4.838;2023-04-25T13:11:08;10.20;99.90
39371;DHT22;25099;51.946;4.838;2023-04-25T13:13:33;10.20;99.90
39371;DHT22;25099;51.946;4.838;2023-04-25T13:16:03;10.20;99.90
39371;DHT22;25099;51.946;4.838;2023-04-25T13:18:30;10.10;99.90
39371;DHT22;25099;51.946;4.838;2023-04-25T13:20:56;10.00;99.90
39371;DHT22;25099;51.946;4.838;2023-04-25T13:23:23;10.10;99.90
39371;DHT22;25099;51.946;4.838;2023-04-25T13:25:48;10.10;99.90
39371;DHT22;25099;51.946;4.838;2023-04-25T13:28:14;10.10;99.90
39371;DHT22;25099;51.946;4.838;2023-04-25T13:30:40;10.10;99.90
39371;DHT22;25099;51.946;4.838;2023-04-25T13:33:06;10.10;99.90
39371;DHT22;25099;51.946;4.838;2023-04-25T13:35:33;10.20;99.90
39371;DHT22;25099;51.946;4.838;2023-04-25T13:37:59;10.20;99.90
39371;DHT22;25099;51.946;4.838;2023-04-25T13:40:25;10.20;99.90
39371;DHT22;25099;51.946;4.838;2023-04-25T13:42:52;10.10;99.90
39371;DHT22;25099;51.946;4.838;2023-04-25T13:45:18;10.00;99.90
39371;DHT22;25099;51.946;4.838;2023-04-25T13:47:43;9.80;99.90
39371;DHT22;25099;51.946;4.838;2023-04-25T13:50:09;9.50;99.90
39371;DHT22;25099;51.946;4.838;2023-04-25T13:52:35;9.40;99.90
39371;DHT22;25099;51.946;4.838;2023-04-25T13:55:01;9.30;99.90
39371;DHT22;25099;51.946;4.838;2023-04-25T13:57:30;9.20;99.90
39371;DHT22;25099;51.946;4.838;2023-04-25T13:59:55;9.20;99.90
39371;DHT22;25099;51.946;4.838;2023-04-25T14:02:21;9.20;99.90
39371;DHT22;25099;51.946;4.838;2023-04-25T14:04:47;9.20;99.90
39371;DHT22;25099;51.946;4.838;2023-04-25T14:07:13;9.40;99.90
39371;DHT22;25099;51.946;4.838;2023-04-25T14:09:41;9.40;99.90
39371;DHT22;25099;51.946;4.838;2023-04-25T14:12:07;9.50;99.90
39371;DHT22;25099;51.946;4.838;2023-04-25T14:14:32;9.50;99.90
39371;DHT22;25099;51.946;4.838;2023-04-25T14:16:58;9.60;99.90
39371;DHT22;25099;51.946;4.838;2023-04-25T14:19:24;9.70;99.90
39371;DHT22;25099;51.946;4.838;2023-04-25T14:21:49;9.80;99.90
39371;DHT22;25099;51.946;4.838;2023-04-25T14:24:15;10.00;99.90
39371;DHT22;25099;51.946;4.838;2023-04-25T14:26:41;10.10;99.90
39371;DHT22;25099;51.946;4.838;2023-04-25T14:29:08;10.10;99.90
39371;DHT22;25099;51.946;4.838;2023-04-25T14:31:34;10.20;99.90
39371;DHT22;25099;51.946;4.838;2023-04-25T14:34:01;10.20;99.90
39371;DHT22;25099;51.946;4.838;2023-04-25T14:36:30;10.30;99.90
39371;DHT22;25099;51.946;4.838;2023-04-25T14:38:58;10.20;99.90
39371;DHT22;25099;51.946;4.838;2023-04-25T14:41:24;10.30;99.90
39371;DHT22;25099;51.946;4.838;2023-04-25T14:43:50;10.90;99.90
39371;DHT22;25099;51.946;4.838;2023-04-25T14:46:16;10.40;99.90
39371;DHT22;25099;51.946;4.838;2023-04-25T14:48:42;10.40;99.90
39371;DHT22;25099;51.946;4.838;2023-04-25T14:51:07;10.50;99.90
39371;DHT22;25099;51.946;4.838;2023-04-25T14:53:33;10.50;99.90
39371;DHT22;25099;51.946;4.838;2023-04-25T14:55:58;10.50;99.90
39371;DHT22;25099;51.946;4.838;2023-04-25T14:58:24;10.50;99.90
39371;DHT22;25099;51.946;4.838;2023-04-25T15:00:50;10.50;99.90
39371;DHT22;25099;51.946;4.838;2023-04-25T15:03:16;10.60;99.90
39371;DHT22;25099;51.946;4.838;2023-04-25T15:05:42;10.60;99.90
39371;DHT22;25099;51.946;4.838;2023-04-25T15:08:08;10.60;99.40
39371;DHT22;25099;51.946;4.838;2023-04-25T15:10:34;10.60;99.80
39371;DHT22;25099;51.946;4.838;2023-04-25T15:12:59;10.70;99.20
39371;DHT22;25099;51.946;4.838;2023-04-25T15:15:26;10.70;99.50
39371;DHT22;25099;51.946;4.838;2023-04-25T15:17:52;11.20;99.90
39371;DHT22;25099;51.946;4.838;2023-04-25T15:20:18;10.90;99.90
39371;DHT22;25099;51.946;4.838;2023-04-25T15:22:44;10.90;99.90
39371;DHT22;25099;51.946;4.838;2023-04-25T15:25:15;10.90;99.90
39371;DHT22;25099;51.946;4.838;2023-04-25T15:27:43;11.00;99.90
39371;DHT22;25099;51.946;4.838;2023-04-25T15:30:12;11.00;99.90
39371;DHT22;25099;51.946;4.838;2023-04-25T15:32:42;11.00;99.90
39371;DHT22;25099;51.946;4.838;2023-04-25T15:35:09;10.90;99.90
39371;DHT22;25099;51.946;4.838;2023-04-25T15:37:35;10.90;99.90
39371;DHT22;25099;51.946;4.838;2023-04-25T15:40:08;10.90;99.90
39371;DHT22;25099;51.946;4.838;2023-04-25T15:42:38;10.80;99.90
39371;DHT22;25099;51.946;4.838;2023-04-25T15:45:06;10.90;99.90